Etusivu
METAR-TAF:

METAR-TAF

Lentoasemat :

Fort Hood / Killeen, Texas, Yhdysvallat

Leveyspiiri: 31-06N, Pituuspiiri: 097-20W, korkeus merenpinnasta: 283 m

Tämänhetkinen sää

Tämä raportti tehtiin 22 minuuttia sitten, kello 12.58 UTC
Tuuli 12 kn pohjoisen/luoteesta
Lämpötila -4°C
Kosteus 63%
Ilmanpaine 1036 hPa
Näkyvyys: 16.1 km
Hajonneita pilviä 16000 ft:n korkeudessa

METAR: KHLR 121258Z AUTO 34012KT 10SM BKN160 M04/M10 A3059 RMK AO2 SLP368 T10381100

Aika: 06:20 (13:20 UTC)


TAF: puuttuu

Säähavainnot ja -ennusteet yli 4000 lentoasemalta (METAR- ja TAF-raportit).

Käytössä olevat sääasemat on merkitty karttaan keltaisilla ja punaisilla pisteillä.

Aseta hiiri pisteen päälle nähdäksesi sääaseman nimen.

Klikkaa sitten nähdäksesi säähavainnot ja -ennusteet.

Kartan vaihtaminen: klikkaa mustalla rastilla varustettuja vihreitä pisteitä, niin voit zoomata sisään; viivalla varustettua vihreää pistettä, niin voit zoomata ulos tai vihreitä nuolia, niin pääset viereisille kartoille.


METAR-TAF: